Time;durP1;ratioP1;P1;durP2;ratioP2;P2;SDS_P1;SDS_P2;PMS_P1;PMS_P2;Temp;Humidity;BMP_temperature;BMP_pressure;BME280_temperature;BME280_humidity;BME280_pressure;Samples;Min_cycle;Max_cycle;Signal;HPM_P1;HPM_P2
2024/02/16 00:00:10;;;;;;;8.52;3.80;;;;;;;;;;5076225;28;20020;-58
2024/02/16 00:02:36;;;;;;;4.50;3.38;;;;;;;;;;5074339;28;20028;-58
2024/02/16 00:05:03;;;;;;;7.65;3.83;;;;;;;;;;5074363;28;20031;-58
2024/02/16 00:07:29;;;;;;;6.45;3.65;;;;;;;;;;5073664;28;20059;-58
2024/02/16 00:09:56;;;;;;;5.38;3.58;;;;;;;;;;5071145;28;20036;-58
2024/02/16 00:12:22;;;;;;;7.65;4.18;;;;;;;;;;5071766;28;20021;-58
2024/02/16 00:14:48;;;;;;;6.82;4.28;;;;;;;;;;5074332;28;20402;-58
2024/02/16 00:17:14;;;;;;;9.98;4.25;;;;;;;;;;5077806;28;20032;-59
2024/02/16 00:19:40;;;;;;;11.43;5.10;;;;;;;;;;5071336;28;20031;-59
2024/02/16 00:22:09;;;;;;;5.57;4.10;;;;;;;;;;5088650;28;20081;-58
2024/02/16 00:24:36;;;;;;;8.07;4.30;;;;;;;;;;5076909;28;20020;-58
2024/02/16 00:27:03;;;;;;;6.18;3.72;;;;;;;;;;5080694;28;20392;-62
2024/02/16 00:29:29;;;;;;;5.97;4.07;;;;;;;;;;5078956;28;20040;-61
2024/02/16 00:31:55;;;;;;;7.47;4.38;;;;;;;;;;5089901;28;20395;-62
2024/02/16 00:34:21;;;;;;;6.25;4.03;;;;;;;;;;5072163;28;20028;-62
2024/02/16 00:36:47;;;;;;;7.47;4.93;;;;;;;;;;5072101;28;20090;-62
2024/02/16 00:39:13;;;;;;;7.13;4.15;;;;;;;;;;5071877;28;20035;-62
2024/02/16 00:41:39;;;;;;;6.72;4.32;;;;;;;;;;5072012;28;20082;-62
2024/02/16 00:44:05;;;;;;;8.18;4.70;;;;;;;;;;5075260;28;20464;-63
2024/02/16 00:46:31;;;;;;;8.25;4.60;;;;;;;;;;5071278;28;20392;-62
2024/02/16 00:48:57;;;;;;;8.10;4.75;;;;;;;;;;5072550;28;20502;-62
2024/02/16 00:51:25;;;;;;;8.98;5.60;;;;;;;;;;5071958;28;20539;-63
2024/02/16 00:53:52;;;;;;;7.78;5.13;;;;;;;;;;5085072;28;20403;-62
2024/02/16 00:56:18;;;;;;;7.53;4.95;;;;;;;;;;5079774;28;20057;-62
2024/02/16 00:58:44;;;;;;;10.77;5.63;;;;;;;;;;5071369;28;20060;-62
2024/02/16 01:01:12;;;;;;;8.73;5.07;;;;;;;;;;5071528;28;20036;-62
2024/02/16 01:03:38;;;;;;;10.55;5.93;;;;;;;;;;5075985;28;20388;-62
2024/02/16 01:06:05;;;;;;;10.43;6.57;;;;;;;;;;5079936;28;20388;-62
2024/02/16 01:08:31;;;;;;;12.70;5.85;;;;;;;;;;5077666;28;20032;-62
2024/02/16 01:10:57;;;;;;;11.85;6.18;;;;;;;;;;5074418;28;20086;-62
2024/02/16 01:13:23;;;;;;;11.82;6.43;;;;;;;;;;5072080;28;20032;-62
2024/02/16 01:15:49;;;;;;;8.88;5.75;;;;;;;;;;5078398;28;20020;-62
2024/02/16 01:18:15;;;;;;;11.57;6.05;;;;;;;;;;5076882;28;20037;-62
2024/02/16 01:20:41;;;;;;;10.18;5.75;;;;;;;;;;5076200;28;20048;-62
2024/02/16 01:23:07;;;;;;;10.93;6.15;;;;;;;;;;5075822;28;20029;-62
2024/02/16 01:25:33;;;;;;;10.18;6.20;;;;;;;;;;5078337;28;20065;-62
2024/02/16 01:27:59;;;;;;;10.30;5.93;;;;;;;;;;5085996;28;20469;-58
2024/02/16 01:30:25;;;;;;;13.88;6.82;;;;;;;;;;5075466;28;20036;-58
2024/02/16 01:32:51;;;;;;;12.57;6.72;;;;;;;;;;5075567;28;20425;-58
2024/02/16 01:35:18;;;;;;;11.68;6.63;;;;;;;;;;5075388;28;20522;-58
2024/02/16 01:37:44;;;;;;;10.30;6.13;;;;;;;;;;5078788;28;20060;-59
2024/02/16 01:40:14;;;;;;;12.63;6.35;;;;;;;;;;5076638;28;20121;-59
2024/02/16 01:42:44;;;;;;;16.20;7.00;;;;;;;;;;5075211;28;20086;-60
2024/02/16 01:45:12;;;;;;;15.68;8.13;;;;;;;;;;5089287;28;20063;-59
2024/02/16 01:47:38;;;;;;;16.52;7.57;;;;;;;;;;5079925;28;20028;-59
2024/02/16 01:50:05;;;;;;;13.10;7.57;;;;;;;;;;5074667;28;20107;-59
2024/02/16 01:52:31;;;;;;;13.25;7.57;;;;;;;;;;5067312;28;20032;-59
2024/02/16 01:54:58;;;;;;;14.50;8.18;;;;;;;;;;5075085;28;20380;-59
2024/02/16 01:57:24;;;;;;;14.40;8.38;;;;;;;;;;5075277;28;20526;-59
2024/02/16 01:59:50;;;;;;;13.20;7.78;;;;;;;;;;5074584;28;20032;-59
2024/02/16 02:02:16;;;;;;;16.25;8.60;;;;;;;;;;5074382;28;20357;-59
2024/02/16 02:04:43;;;;;;;15.20;8.90;;;;;;;;;;5074871;28;20060;-59
2024/02/16 02:07:13;;;;;;;13.98;8.70;;;;;;;;;;5074637;28;20025;-60
2024/02/16 02:09:39;;;;;;;19.50;9.32;;;;;;;;;;5074856;28;20025;-60
2024/02/16 02:12:05;;;;;;;15.57;9.85;;;;;;;;;;5083351;28;20395;-59
2024/02/16 02:14:31;;;;;;;13.98;9.23;;;;;;;;;;5073975;28;20040;-59
2024/02/16 02:16:57;;;;;;;15.27;9.02;;;;;;;;;;5073978;28;20547;-59
2024/02/16 02:19:23;;;;;;;16.52;9.70;;;;;;;;;;5074640;28;20399;-59
2024/02/16 02:21:50;;;;;;;17.15;10.65;;;;;;;;;;5073759;28;20369;-59
2024/02/16 02:24:16;;;;;;;15.75;9.80;;;;;;;;;;5073879;28;20032;-60
2024/02/16 02:26:42;;;;;;;24.25;10.00;;;;;;;;;;5074241;28;20396;-59
2024/02/16 02:29:08;;;;;;;17.95;10.57;;;;;;;;;;5074016;28;20021;-60
2024/02/16 02:31:34;;;;;;;18.30;10.43;;;;;;;;;;5074179;28;20472;-59
2024/02/16 02:34:00;;;;;;;23.30;9.80;;;;;;;;;;5074713;28;20039;-59
2024/02/16 02:36:26;;;;;;;22.98;9.88;;;;;;;;;;5074167;28;20040;-61
2024/02/16 02:38:52;;;;;;;16.85;9.82;;;;;;;;;;5071637;28;20475;-61
2024/02/16 02:41:20;;;;;;;18.02;9.65;;;;;;;;;;5074016;28;20024;-61
2024/02/16 02:43:46;;;;;;;20.50;10.15;;;;;;;;;;5072083;28;20016;-61
2024/02/16 02:46:18;;;;;;;13.98;8.90;;;;;;;;;;5081487;28;20038;-61
2024/02/16 02:48:45;;;;;;;15.80;9.47;;;;;;;;;;5070766;28;20029;-60
2024/02/16 02:51:11;;;;;;;15.20;9.98;;;;;;;;;;5071893;28;20028;-61
2024/02/16 02:53:36;;;;;;;16.90;9.93;;;;;;;;;;5074729;28;20138;-60
2024/02/16 02:56:03;;;;;;;16.15;10.13;;;;;;;;;;5084920;28;20501;-61
2024/02/16 02:58:29;;;;;;;21.05;9.50;;;;;;;;;;5078603;28;20036;-61
2024/02/16 03:00:55;;;;;;;17.48;10.18;;;;;;;;;;5080190;28;20028;-61
2024/02/16 03:03:21;;;;;;;17.60;10.55;;;;;;;;;;5073608;28;20497;-61
2024/02/16 03:05:48;;;;;;;14.05;8.23;;;;;;;;;;5069418;28;20029;-61
2024/02/16 03:08:14;;;;;;;19.88;9.93;;;;;;;;;;5082248;28;20020;-61
2024/02/16 03:10:40;;;;;;;16.00;9.48;;;;;;;;;;5073438;28;20021;-61
2024/02/16 03:13:09;;;;;;;15.68;10.32;;;;;;;;;;5063977;28;20029;-60
2024/02/16 03:15:35;;;;;;;18.20;10.68;;;;;;;;;;5075466;28;20150;-60
2024/02/16 03:18:02;;;;;;;16.85;10.68;;;;;;;;;;5065647;28;20048;-61
2024/02/16 03:20:29;;;;;;;17.98;10.10;;;;;;;;;;5072244;28;20032;-61
2024/02/16 03:22:56;;;;;;;15.85;9.73;;;;;;;;;;5073163;28;20024;-60
2024/02/16 03:25:23;;;;;;;17.98;10.20;;;;;;;;;;5072939;28;20032;-61
2024/02/16 03:27:49;;;;;;;14.23;9.30;;;;;;;;;;5091133;28;20024;-61
2024/02/16 03:30:16;;;;;;;14.38;8.77;;;;;;;;;;5079185;28;20112;-61
2024/02/16 03:32:41;;;;;;;16.40;9.88;;;;;;;;;;5071729;28;20610;-61
2024/02/16 03:35:08;;;;;;;18.23;10.10;;;;;;;;;;5072881;28;20031;-60
2024/02/16 03:37:34;;;;;;;16.05;9.27;;;;;;;;;;5073570;28;20035;-61
2024/02/16 03:40:00;;;;;;;14.23;8.93;;;;;;;;;;5073375;28;20029;-60
2024/02/16 03:42:26;;;;;;;17.83;9.93;;;;;;;;;;5081413;28;20032;-61
2024/02/16 03:44:52;;;;;;;14.52;9.07;;;;;;;;;;5077516;28;20036;-60
2024/02/16 03:47:18;;;;;;;16.75;9.63;;;;;;;;;;5079007;28;20032;-61
2024/02/16 03:49:44;;;;;;;17.15;9.50;;;;;;;;;;5073464;28;20551;-61
2024/02/16 03:52:10;;;;;;;16.88;9.38;;;;;;;;;;5070847;28;20054;-61
2024/02/16 03:54:36;;;;;;;12.50;9.02;;;;;;;;;;5072105;28;20032;-61
2024/02/16 03:57:04;;;;;;;17.27;9.15;;;;;;;;;;5083473;28;20544;-59
2024/02/16 03:59:29;;;;;;;18.85;9.20;;;;;;;;;;5082084;28;20472;-60
2024/02/16 04:01:56;;;;;;;14.63;8.55;;;;;;;;;;5082338;28;20039;-59
2024/02/16 04:04:22;;;;;;;14.82;8.90;;;;;;;;;;5086391;28;20055;-60
2024/02/16 04:06:48;;;;;;;17.13;9.65;;;;;;;;;;5072351;28;20029;-59
2024/02/16 04:09:15;;;;;;;16.55;9.32;;;;;;;;;;5065302;28;20425;-59
2024/02/16 04:11:41;;;;;;;14.65;8.55;;;;;;;;;;5073584;28;20028;-59
2024/02/16 04:14:08;;;;;;;15.15;8.95;;;;;;;;;;5072311;28;20050;-59
2024/02/16 04:16:34;;;;;;;16.10;9.60;;;;;;;;;;5079138;28;20044;-59
2024/02/16 04:19:00;;;;;;;17.60;9.73;;;;;;;;;;5091847;28;20036;-59
2024/02/16 04:21:26;;;;;;;14.82;9.27;;;;;;;;;;5071910;28;20029;-59
2024/02/16 04:23:52;;;;;;;18.65;9.18;;;;;;;;;;5071530;28;20016;-59
2024/02/16 04:26:18;;;;;;;14.48;8.32;;;;;;;;;;5073313;28;20472;-59
2024/02/16 04:28:44;;;;;;;13.40;8.63;;;;;;;;;;5072367;28;20036;-59
2024/02/16 04:31:10;;;;;;;14.90;9.25;;;;;;;;;;5072192;28;20031;-59
2024/02/16 04:33:36;;;;;;;21.38;10.35;;;;;;;;;;5072175;28;20040;-59
2024/02/16 04:36:02;;;;;;;14.82;9.30;;;;;;;;;;5073466;28;20020;-59
2024/02/16 04:38:28;;;;;;;16.13;8.48;;;;;;;;;;5078954;28;20074;-59
2024/02/16 04:40:54;;;;;;;15.50;9.32;;;;;;;;;;5071708;28;20468;-59
2024/02/16 04:43:20;;;;;;;18.65;9.05;;;;;;;;;;5073454;28;20103;-59
2024/02/16 04:45:46;;;;;;;16.27;9.38;;;;;;;;;;5072115;28;20130;-59
2024/02/16 04:48:12;;;;;;;16.30;9.45;;;;;;;;;;5084902;28;20024;-60
2024/02/16 04:50:38;;;;;;;19.92;9.48;;;;;;;;;;5074508;28;20039;-60
2024/02/16 04:53:04;;;;;;;16.88;9.07;;;;;;;;;;5071707;28;20028;-59
2024/02/16 04:55:31;;;;;;;14.30;8.70;;;;;;;;;;5073130;28;20029;-60
2024/02/16 04:57:57;;;;;;;14.00;8.13;;;;;;;;;;5083731;28;20386;-59
2024/02/16 05:00:23;;;;;;;17.38;9.95;;;;;;;;;;5077164;28;20111;-58
2024/02/16 05:02:49;;;;;;;15.15;8.90;;;;;;;;;;5064923;28;20035;-58
2024/02/16 05:05:15;;;;;;;13.65;7.90;;;;;;;;;;5070804;28;20024;-58
2024/02/16 05:07:43;;;;;;;16.20;8.88;;;;;;;;;;5071832;28;20535;-62
2024/02/16 05:10:09;;;;;;;11.82;7.95;;;;;;;;;;5072634;28;20046;-62
2024/02/16 05:12:35;;;;;;;16.88;8.80;;;;;;;;;;5082629;28;20063;-62
2024/02/16 05:15:01;;;;;;;14.00;8.63;;;;;;;;;;5070294;28;20449;-62
2024/02/16 05:17:27;;;;;;;15.30;8.32;;;;;;;;;;5070209;28;20049;-62
2024/02/16 05:19:53;;;;;;;14.30;8.25;;;;;;;;;;5078250;28;20058;-62
2024/02/16 05:22:21;;;;;;;14.63;8.70;;;;;;;;;;5071194;28;20037;-62
2024/02/16 05:24:47;;;;;;;16.05;8.65;;;;;;;;;;5071855;28;20082;-62
2024/02/16 05:27:13;;;;;;;15.52;8.65;;;;;;;;;;5071309;28;20066;-62
2024/02/16 05:29:40;;;;;;;16.83;7.63;;;;;;;;;;5077033;28;20460;-61
2024/02/16 05:32:06;;;;;;;16.08;8.27;;;;;;;;;;5083087;28;20060;-62
2024/02/16 05:34:37;;;;;;;14.65;8.30;;;;;;;;;;5072745;28;20060;-61
2024/02/16 05:37:06;;;;;;;13.48;8.57;;;;;;;;;;5070836;28;20545;-62
2024/02/16 05:39:35;;;;;;;12.25;7.90;;;;;;;;;;5071466;28;20032;-62
2024/02/16 05:42:01;;;;;;;18.23;9.02;;;;;;;;;;5071070;28;20036;-62
2024/02/16 05:44:27;;;;;;;17.35;9.45;;;;;;;;;;5070959;28;20051;-62
2024/02/16 05:46:54;;;;;;;16.10;8.70;;;;;;;;;;5072121;28;20030;-62
2024/02/16 05:49:20;;;;;;;16.23;8.77;;;;;;;;;;5069479;28;20027;-61
2024/02/16 05:52:17;;;;;;;17.15;9.13;;;;;;;;;;5077770;28;20032;-62
2024/02/16 05:54:32;;;;;;;15.75;8.70;;;;;;;;;;5058287;28;20078;-62
2024/02/16 05:56:58;;;;;;;14.52;8.32;;;;;;;;;;5069698;28;20029;-61
2024/02/16 05:59:24;;;;;;;21.90;9.38;;;;;;;;;;5071273;28;20032;-61
2024/02/16 06:01:50;;;;;;;15.05;8.68;;;;;;;;;;5075796;28;20029;-62
2024/02/16 06:04:17;;;;;;;16.75;8.15;;;;;;;;;;5073980;28;20023;-62
2024/02/16 06:06:43;;;;;;;16.98;7.95;;;;;;;;;;5074070;28;20340;-58
2024/02/16 06:09:09;;;;;;;13.18;7.68;;;;;;;;;;5073622;28;20119;-60
2024/02/16 06:11:38;;;;;;;18.17;8.93;;;;;;;;;;5064062;28;20028;-59
2024/02/16 06:14:04;;;;;;;17.23;8.38;;;;;;;;;;5073446;28;20032;-58
2024/02/16 06:16:30;;;;;;;15.23;8.40;;;;;;;;;;5074015;28;20101;-58
2024/02/16 06:18:56;;;;;;;15.00;8.45;;;;;;;;;;5073369;28;20040;-58
2024/02/16 06:21:22;;;;;;;13.00;7.47;;;;;;;;;;5075365;28;20040;-60
2024/02/16 06:23:48;;;;;;;18.25;8.18;;;;;;;;;;5077102;28;20028;-59
2024/02/16 06:26:14;;;;;;;16.77;8.73;;;;;;;;;;5072715;28;20521;-59
2024/02/16 06:28:40;;;;;;;14.73;8.27;;;;;;;;;;5066289;28;20411;-59
2024/02/16 06:31:06;;;;;;;17.05;8.30;;;;;;;;;;5070056;28;20337;-57
2024/02/16 06:33:32;;;;;;;14.85;8.57;;;;;;;;;;5072672;28;20021;-58
2024/02/16 06:35:58;;;;;;;16.08;7.60;;;;;;;;;;5072548;28;20101;-60
2024/02/16 06:38:24;;;;;;;17.63;8.80;;;;;;;;;;5072082;28;20024;-58
2024/02/16 06:40:50;;;;;;;14.95;7.60;;;;;;;;;;5073595;28;20028;-57
2024/02/16 06:43:16;;;;;;;15.60;7.10;;;;;;;;;;5073552;28;20024;-58
2024/02/16 06:45:42;;;;;;;11.52;7.20;;;;;;;;;;5083951;28;20044;-57
2024/02/16 06:48:08;;;;;;;18.08;8.90;;;;;;;;;;5072293;28;20020;-57
2024/02/16 06:50:34;;;;;;;15.93;7.72;;;;;;;;;;5072927;28;20078;-57
2024/02/16 06:53:00;;;;;;;15.23;7.22;;;;;;;;;;5072911;28;20468;-58
2024/02/16 06:55:26;;;;;;;12.75;7.60;;;;;;;;;;5073450;28;20480;-57
2024/02/16 06:57:52;;;;;;;13.98;7.43;;;;;;;;;;5072565;28;20083;-58
2024/02/16 07:00:19;;;;;;;14.07;7.50;;;;;;;;;;5073251;28;20062;-57
2024/02/16 07:02:45;;;;;;;19.65;7.97;;;;;;;;;;5073521;28;20067;-57
2024/02/16 07:05:13;;;;;;;13.98;8.13;;;;;;;;;;5072659;28;20029;-58
2024/02/16 07:07:39;;;;;;;13.52;7.55;;;;;;;;;;5070591;28;20127;-59
2024/02/16 07:10:05;;;;;;;18.83;8.48;;;;;;;;;;5072149;28;20025;-58
2024/02/16 07:12:33;;;;;;;15.55;8.15;;;;;;;;;;5072248;28;20036;-59
2024/02/16 07:14:59;;;;;;;12.45;7.28;;;;;;;;;;5072741;28;20059;-59
2024/02/16 07:17:25;;;;;;;13.40;7.43;;;;;;;;;;5073035;28;20045;-59
2024/02/16 07:19:51;;;;;;;14.00;7.68;;;;;;;;;;5072893;28;20127;-58
2024/02/16 07:22:17;;;;;;;16.10;7.78;;;;;;;;;;5072445;28;20037;-58
2024/02/16 07:24:43;;;;;;;13.43;7.40;;;;;;;;;;5072806;28;20016;-59
2024/02/16 07:27:10;;;;;;;14.73;7.38;;;;;;;;;;5072431;28;20036;-58
2024/02/16 07:29:38;;;;;;;13.77;7.63;;;;;;;;;;5072975;28;20020;-58
2024/02/16 07:32:05;;;;;;;17.10;7.90;;;;;;;;;;5072165;28;20036;-60
2024/02/16 07:34:31;;;;;;;14.10;7.55;;;;;;;;;;5072564;28;20060;-58
2024/02/16 07:36:57;;;;;;;10.50;6.72;;;;;;;;;;5072722;28;20028;-58
2024/02/16 07:39:23;;;;;;;12.25;6.45;;;;;;;;;;5072552;28;20064;-58
2024/02/16 07:41:50;;;;;;;13.38;6.60;;;;;;;;;;5071345;28;20078;-58
2024/02/16 07:44:15;;;;;;;10.57;6.28;;;;;;;;;;5072336;28;20028;-59
2024/02/16 07:46:43;;;;;;;12.02;6.78;;;;;;;;;;5072334;28;20032;-58
2024/02/16 07:49:10;;;;;;;12.90;6.88;;;;;;;;;;5072329;28;20017;-57
2024/02/16 07:51:37;;;;;;;14.32;6.82;;;;;;;;;;5071807;28;20028;-58
2024/02/16 07:54:03;;;;;;;11.82;6.65;;;;;;;;;;5072346;28;20104;-58
2024/02/16 07:56:30;;;;;;;13.73;6.10;;;;;;;;;;5071942;28;20407;-58
2024/02/16 07:58:56;;;;;;;11.05;6.40;;;;;;;;;;5070997;28;20070;-58
2024/02/16 08:01:22;;;;;;;12.75;6.38;;;;;;;;;;5071371;28;20032;-58
2024/02/16 08:03:48;;;;;;;10.75;6.20;;;;;;;;;;5072152;28;20519;-58
2024/02/16 08:06:14;;;;;;;9.75;6.00;;;;;;;;;;5072036;28;20488;-58
2024/02/16 08:08:40;;;;;;;12.48;6.20;;;;;;;;;;5071096;28;20031;-59
2024/02/16 08:11:06;;;;;;;11.18;6.18;;;;;;;;;;5071706;28;20028;-59
2024/02/16 08:13:32;;;;;;;9.35;5.53;;;;;;;;;;5071014;28;20078;-58
2024/02/16 08:15:58;;;;;;;11.30;5.80;;;;;;;;;;5071785;28;20121;-59
2024/02/16 08:18:24;;;;;;;7.93;4.88;;;;;;;;;;5071228;28;20139;-58
2024/02/16 08:20:50;;;;;;;8.70;4.85;;;;;;;;;;5070914;28;20029;-58
2024/02/16 08:23:16;;;;;;;8.63;5.05;;;;;;;;;;5071203;28;20640;-58
2024/02/16 08:25:42;;;;;;;12.15;5.47;;;;;;;;;;5071319;28;20376;-58
2024/02/16 08:28:08;;;;;;;8.82;4.80;;;;;;;;;;5071229;28;20024;-59
2024/02/16 08:30:35;;;;;;;8.35;4.82;;;;;;;;;;5071775;28;20035;-60
2024/02/16 08:33:01;;;;;;;10.10;4.80;;;;;;;;;;5071644;28;20032;-60
2024/02/16 08:35:28;;;;;;;8.80;5.00;;;;;;;;;;5071618;28;20028;-60
2024/02/16 08:37:54;;;;;;;9.68;4.97;;;;;;;;;;5071333;28;20096;-62
2024/02/16 08:40:20;;;;;;;9.18;5.20;;;;;;;;;;5070373;28;20036;-62
2024/02/16 08:42:47;;;;;;;11.73;4.82;;;;;;;;;;5070558;28;20059;-63
2024/02/16 08:45:13;;;;;;;9.82;5.35;;;;;;;;;;5070096;28;20102;-63
2024/02/16 08:47:40;;;;;;;12.73;4.57;;;;;;;;;;5071273;28;20031;-63
2024/02/16 08:50:06;;;;;;;11.00;4.05;;;;;;;;;;5071658;28;20383;-63
2024/02/16 08:52:32;;;;;;;8.60;4.25;;;;;;;;;;5071062;28;20421;-62
2024/02/16 08:54:58;;;;;;;10.00;5.00;;;;;;;;;;5071761;28;20082;-63
2024/02/16 08:57:24;;;;;;;8.52;3.95;;;;;;;;;;5070411;28;20036;-63
2024/02/16 08:59:50;;;;;;;6.90;4.03;;;;;;;;;;5069674;28;20132;-63
2024/02/16 09:02:16;;;;;;;8.48;4.20;;;;;;;;;;5069409;28;20037;-63
2024/02/16 09:04:42;;;;;;;7.32;4.32;;;;;;;;;;5069615;28;20028;-63
2024/02/16 09:07:08;;;;;;;7.20;3.72;;;;;;;;;;5068114;28;20063;-62
2024/02/16 09:09:34;;;;;;;6.22;3.28;;;;;;;;;;5068796;28;20392;-62
2024/02/16 09:12:00;;;;;;;9.38;3.97;;;;;;;;;;5071050;28;20472;-63
2024/02/16 09:14:26;;;;;;;6.80;4.10;;;;;;;;;;5070966;28;20036;-63
2024/02/16 09:16:52;;;;;;;6.85;3.53;;;;;;;;;;5070915;28;20049;-63
2024/02/16 09:19:19;;;;;;;7.20;4.18;;;;;;;;;;5071205;28;20035;-63
2024/02/16 09:21:45;;;;;;;9.52;4.82;;;;;;;;;;5070225;28;20036;-62
2024/02/16 09:24:17;;;;;;;7.32;3.55;;;;;;;;;;5070965;28;20040;-62
2024/02/16 09:26:43;;;;;;;7.07;3.80;;;;;;;;;;5070739;28;20385;-62
2024/02/16 09:29:09;;;;;;;6.00;3.80;;;;;;;;;;5069820;28;20044;-63
2024/02/16 09:31:35;;;;;;;5.82;3.35;;;;;;;;;;5070148;28;20039;-63
2024/02/16 09:34:02;;;;;;;7.30;3.67;;;;;;;;;;5070504;28;20029;-63
2024/02/16 09:36:28;;;;;;;9.38;3.78;;;;;;;;;;5070375;28;20032;-60
2024/02/16 09:38:54;;;;;;;8.35;3.30;;;;;;;;;;5074325;28;20036;-60
2024/02/16 09:41:20;;;;;;;6.03;2.83;;;;;;;;;;5065030;28;20116;-60
2024/02/16 09:43:46;;;;;;;7.88;3.97;;;;;;;;;;5074484;28;20021;-59
2024/02/16 09:46:12;;;;;;;5.90;3.60;;;;;;;;;;5073923;28;20404;-59
2024/02/16 09:48:41;;;;;;;5.38;3.20;;;;;;;;;;5074805;28;20035;-59
2024/02/16 09:51:07;;;;;;;5.10;3.03;;;;;;;;;;5074349;28;20024;-59
2024/02/16 09:53:33;;;;;;;5.45;3.20;;;;;;;;;;5074411;28;20116;-60
2024/02/16 09:55:59;;;;;;;7.07;3.78;;;;;;;;;;5068323;28;20345;-60
2024/02/16 09:58:25;;;;;;;5.80;3.38;;;;;;;;;;5071856;28;20028;-58
2024/02/16 10:00:52;;;;;;;6.88;3.67;;;;;;;;;;5072711;28;20080;-58
2024/02/16 10:03:28;;;;;;;6.80;3.63;;;;;;;;;;5073062;28;20021;-58
2024/02/16 10:06:11;;;;;;;5.38;3.42;;;;;;;;;;5073145;28;20025;-59
2024/02/16 10:08:53;;;;;;;4.93;3.00;;;;;;;;;;5071097;28;20032;-59
2024/02/16 10:11:20;;;;;;;7.03;3.60;;;;;;;;;;5071552;28;20040;-59
2024/02/16 10:14:02;;;;;;;6.80;3.08;;;;;;;;;;5075153;28;20085;-60
2024/02/16 10:16:29;;;;;;;6.32;3.10;;;;;;;;;;5073539;28;20040;-59
2024/02/16 10:18:57;;;;;;;7.80;3.05;;;;;;;;;;5074173;28;20033;-58
2024/02/16 10:21:30;;;;;;;6.30;3.22;;;;;;;;;;5073851;28;20385;-58
2024/02/16 10:24:04;;;;;;;5.40;2.92;;;;;;;;;;5073996;28;20469;-58
2024/02/16 10:26:30;;;;;;;6.75;3.55;;;;;;;;;;5073648;28;20103;-59
2024/02/16 10:28:57;;;;;;;5.65;3.25;;;;;;;;;;5074230;28;20123;-58
2024/02/16 10:31:28;;;;;;;4.72;2.75;;;;;;;;;;5073291;28;20074;-58
2024/02/16 10:33:57;;;;;;;5.50;2.90;;;;;;;;;;5073921;28;20024;-58
2024/02/16 10:36:24;;;;;;;4.22;2.80;;;;;;;;;;5073051;28;20405;-59
2024/02/16 10:38:50;;;;;;;7.13;3.30;;;;;;;;;;5073598;28;20158;-59
2024/02/16 10:41:17;;;;;;;6.35;3.30;;;;;;;;;;5073735;28;20032;-60
2024/02/16 10:43:44;;;;;;;5.70;2.90;;;;;;;;;;5071767;28;20025;-59
2024/02/16 10:46:10;;;;;;;5.13;3.40;;;;;;;;;;5071051;28;20036;-60
2024/02/16 10:48:36;;;;;;;5.47;3.42;;;;;;;;;;5072201;28;20085;-60
2024/02/16 10:51:02;;;;;;;7.75;2.70;;;;;;;;;;5071292;28;20032;-60
2024/02/16 10:53:31;;;;;;;6.90;3.35;;;;;;;;;;5071490;28;20107;-60
2024/02/16 10:56:01;;;;;;;4.95;3.15;;;;;;;;;;5072052;28;20487;-60
2024/02/16 10:58:27;;;;;;;5.55;3.15;;;;;;;;;;5069453;28;20033;-63
2024/02/16 11:00:54;;;;;;;4.10;2.78;;;;;;;;;;5072005;28;20479;-64
2024/02/16 11:03:27;;;;;;;5.57;3.25;;;;;;;;;;5069341;28;20025;-64
2024/02/16 11:05:54;;;;;;;6.00;3.00;;;;;;;;;;5070450;28;20102;-64
2024/02/16 11:08:21;;;;;;;7.13;3.40;;;;;;;;;;5069628;28;20444;-64
2024/02/16 11:11:00;;;;;;;5.85;3.22;;;;;;;;;;5072046;28;20027;-64
2024/02/16 11:13:27;;;;;;;8.43;3.25;;;;;;;;;;5071525;28;20032;-64
2024/02/16 11:16:08;;;;;;;5.75;3.30;;;;;;;;;;5071032;28;20025;-64
2024/02/16 11:18:39;;;;;;;6.10;3.30;;;;;;;;;;5070094;28;20032;-64
2024/02/16 11:21:07;;;;;;;5.82;3.45;;;;;;;;;;5071190;28;20032;-64
2024/02/16 11:23:34;;;;;;;6.18;3.00;;;;;;;;;;5070902;28;20039;-64
2024/02/16 11:26:02;;;;;;;4.63;2.70;;;;;;;;;;5071668;28;20035;-65
2024/02/16 11:28:29;;;;;;;5.22;2.60;;;;;;;;;;5071138;28;20502;-65
2024/02/16 11:30:55;;;;;;;6.18;2.80;;;;;;;;;;5071315;28;20468;-65
2024/02/16 11:33:20;;;;;;;6.10;2.88;;;;;;;;;;5071113;28;20031;-65
2024/02/16 11:35:53;;;;;;;7.68;2.22;;;;;;;;;;5071158;28;20028;-65
2024/02/16 11:38:20;;;;;;;3.50;2.53;;;;;;;;;;5069923;28;20069;-65
2024/02/16 11:41:00;;;;;;;3.50;2.30;;;;;;;;;;5071268;28;20510;-65
2024/02/16 11:43:26;;;;;;;4.93;2.25;;;;;;;;;;5068905;28;20021;-64
2024/02/16 11:45:53;;;;;;;6.75;2.33;;;;;;;;;;5071120;28;20066;-64
2024/02/16 11:48:28;;;;;;;3.22;1.85;;;;;;;;;;5070826;28;20476;-63
2024/02/16 11:51:01;;;;;;;6.45;2.28;;;;;;;;;;5068892;28;20032;-64
2024/02/16 11:53:28;;;;;;;4.93;2.30;;;;;;;;;;5069881;28;20485;-64
2024/02/16 11:55:54;;;;;;;3.17;1.88;;;;;;;;;;5068212;28;20047;-63
2024/02/16 11:58:20;;;;;;;5.03;1.92;;;;;;;;;;5072536;28;20385;-61
2024/02/16 12:00:53;;;;;;;4.20;1.70;;;;;;;;;;5070665;28;20498;-61
2024/02/16 12:03:22;;;;;;;3.22;2.03;;;;;;;;;;5070516;28;20050;-62
2024/02/16 12:05:55;;;;;;;3.88;1.98;;;;;;;;;;5070441;28;20492;-62
2024/02/16 12:08:21;;;;;;;2.55;1.42;;;;;;;;;;5070071;28;20117;-63
2024/02/16 12:10:51;;;;;;;5.53;2.00;;;;;;;;;;5069817;28;20360;-64
2024/02/16 12:13:20;;;;;;;3.67;1.70;;;;;;;;;;5074791;28;20021;-64
2024/02/16 12:15:50;;;;;;;2.78;1.40;;;;;;;;;;5071184;28;20035;-64
2024/02/16 12:18:29;;;;;;;4.50;1.27;;;;;;;;;;5073328;28;20488;-64
2024/02/16 12:21:02;;;;;;;4.18;1.42;;;;;;;;;;5077997;28;20041;-63
2024/02/16 12:23:28;;;;;;;3.97;1.80;;;;;;;;;;5071842;28;20105;-66
2024/02/16 12:25:54;;;;;;;3.08;1.40;;;;;;;;;;5071122;28;20103;-64
2024/02/16 12:28:24;;;;;;;2.10;1.20;;;;;;;;;;5071084;28;20099;-64
2024/02/16 12:30:50;;;;;;;2.42;1.27;;;;;;;;;;5073926;28;20035;-64
2024/02/16 12:33:16;;;;;;;3.42;1.83;;;;;;;;;;5076460;28;20036;-64
2024/02/16 12:35:42;;;;;;;4.18;1.80;;;;;;;;;;5081595;28;20048;-64
2024/02/16 12:38:08;;;;;;;2.85;1.65;;;;;;;;;;5074685;28;20048;-64
2024/02/16 12:40:34;;;;;;;4.30;1.80;;;;;;;;;;5073081;28;20060;-64
2024/02/16 12:43:00;;;;;;;2.22;1.52;;;;;;;;;;5075924;28;20056;-64
2024/02/16 12:45:26;;;;;;;2.10;1.25;;;;;;;;;;5070506;28;20032;-64
2024/02/16 12:47:53;;;;;;;3.65;1.90;;;;;;;;;;5070839;28;20081;-64
2024/02/16 12:50:19;;;;;;;3.40;1.73;;;;;;;;;;5079598;28;20021;-66
2024/02/16 12:52:45;;;;;;;3.80;2.05;;;;;;;;;;5075276;28;20036;-64
2024/02/16 12:55:12;;;;;;;4.07;1.80;;;;;;;;;;5069909;28;20454;-64
2024/02/16 12:57:38;;;;;;;4.15;1.48;;;;;;;;;;5070113;28;20047;-64
2024/02/16 13:00:05;;;;;;;3.63;1.25;;;;;;;;;;5070659;28;20402;-63
2024/02/16 13:02:31;;;;;;;2.40;1.65;;;;;;;;;;5070727;28;20028;-62
2024/02/16 13:04:57;;;;;;;3.22;1.60;;;;;;;;;;5060425;28;20040;-63
2024/02/16 13:07:25;;;;;;;4.18;1.63;;;;;;;;;;5070427;28;20031;-60
2024/02/16 13:09:51;;;;;;;3.17;1.10;;;;;;;;;;5071248;28;20040;-59
2024/02/16 13:12:20;;;;;;;3.92;1.75;;;;;;;;;;5073373;28;20491;-60
2024/02/16 13:14:46;;;;;;;2.78;1.50;;;;;;;;;;5073419;28;20411;-60
2024/02/16 13:17:12;;;;;;;2.13;1.38;;;;;;;;;;5074184;28;20052;-64
2024/02/16 13:19:38;;;;;;;1.92;1.42;;;;;;;;;;5074254;28;20032;-64
2024/02/16 13:22:04;;;;;;;4.00;1.70;;;;;;;;;;5074782;28;20033;-64
2024/02/16 13:24:30;;;;;;;3.00;1.92;;;;;;;;;;5072417;28;20096;-64
2024/02/16 13:26:56;;;;;;;3.58;1.70;;;;;;;;;;5075173;28;20025;-64
2024/02/16 13:29:23;;;;;;;3.58;1.50;;;;;;;;;;5072923;28;20071;-64
2024/02/16 13:31:49;;;;;;;4.95;2.45;;;;;;;;;;5074040;28;20377;-64
2024/02/16 13:34:15;;;;;;;3.30;1.30;;;;;;;;;;5075815;28;20043;-64
2024/02/16 13:36:41;;;;;;;2.03;1.42;;;;;;;;;;5072095;28;20389;-64
2024/02/16 13:39:08;;;;;;;4.40;1.38;;;;;;;;;;5073818;28;20033;-63
2024/02/16 13:41:34;;;;;;;2.20;1.20;;;;;;;;;;5072123;28;20115;-64
2024/02/16 13:44:00;;;;;;;2.47;1.42;;;;;;;;;;5074647;28;20468;-63
2024/02/16 13:46:26;;;;;;;3.67;1.25;;;;;;;;;;5071099;28;20025;-62
2024/02/16 13:48:52;;;;;;;4.43;1.67;;;;;;;;;;5073501;28;20249;-64
2024/02/16 13:51:19;;;;;;;3.17;1.52;;;;;;;;;;5073078;28;20050;-64
2024/02/16 13:53:45;;;;;;;4.38;1.42;;;;;;;;;;5071168;28;20436;-63
2024/02/16 13:56:11;;;;;;;6.47;1.52;;;;;;;;;;5073645;28;20130;-64
2024/02/16 13:58:37;;;;;;;2.40;1.40;;;;;;;;;;5072456;28;20476;-63
2024/02/16 14:01:04;;;;;;;2.72;1.50;;;;;;;;;;5074520;28;20376;-63
2024/02/16 14:03:31;;;;;;;3.60;1.63;;;;;;;;;;5073681;28;20459;-64
2024/02/16 14:05:57;;;;;;;2.45;1.40;;;;;;;;;;5073686;28;20046;-63
2024/02/16 14:08:23;;;;;;;3.42;1.40;;;;;;;;;;5072492;28;20024;-63
2024/02/16 14:10:49;;;;;;;2.15;1.20;;;;;;;;;;5094883;28;20081;-64
2024/02/16 14:13:16;;;;;;;2.92;1.40;;;;;;;;;;5079682;28;20522;-63
2024/02/16 14:15:42;;;;;;;3.08;1.40;;;;;;;;;;5080346;28;20488;-63
2024/02/16 14:18:08;;;;;;;4.30;1.40;;;;;;;;;;5077262;28;20024;-61
2024/02/16 14:20:35;;;;;;;2.47;1.17;;;;;;;;;;5081409;28;20036;-61
2024/02/16 14:23:02;;;;;;;6.18;1.50;;;;;;;;;;5071930;28;20035;-61
2024/02/16 14:25:28;;;;;;;2.97;1.35;;;;;;;;;;5080101;28;20032;-61
2024/02/16 14:27:55;;;;;;;3.95;1.52;;;;;;;;;;5079216;28;20445;-59
2024/02/16 14:30:21;;;;;;;2.75;1.45;;;;;;;;;;5073926;28;20520;-58
2024/02/16 14:32:47;;;;;;;1.90;1.13;;;;;;;;;;5074505;28;20078;-59